sensor_id;sensor_type;location;lat;lon;timestamp;P1;durP1;ratioP1;P2;durP2;ratioP2
12052;SDS011;6087;48.982;12.064;2022-08-20T00:01:51;4.95;;;4.40;;
12052;SDS011;6087;48.982;12.064;2022-08-20T00:04:17;4.55;;;4.25;;
12052;SDS011;6087;48.982;12.064;2022-08-20T00:06:46;7.95;;;5.93;;
12052;SDS011;6087;48.982;12.064;2022-08-20T00:09:13;5.13;;;4.63;;
12052;SDS011;6087;48.982;12.064;2022-08-20T00:11:40;5.18;;;4.68;;
12052;SDS011;6087;48.982;12.064;2022-08-20T00:14:07;5.88;;;4.70;;
12052;SDS011;6087;48.982;12.064;2022-08-20T00:16:36;6.03;;;4.03;;
12052;SDS011;6087;48.982;12.064;2022-08-20T00:19:04;5.93;;;4.35;;
12052;SDS011;6087;48.982;12.064;2022-08-20T00:21:32;6.22;;;4.57;;
12052;SDS011;6087;48.982;12.064;2022-08-20T00:24:02;4.90;;;4.50;;
12052;SDS011;6087;48.982;12.064;2022-08-20T00:26:29;4.85;;;4.45;;
12052;SDS011;6087;48.982;12.064;2022-08-20T00:28:56;4.60;;;4.20;;
12052;SDS011;6087;48.982;12.064;2022-08-20T00:31:23;5.18;;;4.78;;
12052;SDS011;6087;48.982;12.064;2022-08-20T00:33:50;4.75;;;4.28;;
12052;SDS011;6087;48.982;12.064;2022-08-20T00:36:18;6.40;;;4.20;;
12052;SDS011;6087;48.982;12.064;2022-08-20T00:38:45;5.43;;;4.32;;
12052;SDS011;6087;48.982;12.064;2022-08-20T00:41:15;3.88;;;3.58;;
12052;SDS011;6087;48.982;12.064;2022-08-20T00:43:46;5.13;;;3.97;;
12052;SDS011;6087;48.982;12.064;2022-08-20T00:46:16;3.53;;;3.22;;
12052;SDS011;6087;48.982;12.064;2022-08-20T00:48:53;3.90;;;3.40;;
12052;SDS011;6087;48.982;12.064;2022-08-20T00:51:23;4.35;;;3.85;;
12052;SDS011;6087;48.982;12.064;2022-08-20T00:53:54;3.45;;;3.05;;
12052;SDS011;6087;48.982;12.064;2022-08-20T00:56:23;3.88;;;3.50;;
12052;SDS011;6087;48.982;12.064;2022-08-20T00:58:50;3.10;;;2.90;;
12052;SDS011;6087;48.982;12.064;2022-08-20T01:01:18;4.53;;;3.22;;
12052;SDS011;6087;48.982;12.064;2022-08-20T01:03:47;3.58;;;3.28;;
12052;SDS011;6087;48.982;12.064;2022-08-20T01:06:14;3.70;;;3.40;;
12052;SDS011;6087;48.982;12.064;2022-08-20T01:08:42;3.70;;;3.40;;
12052;SDS011;6087;48.982;12.064;2022-08-20T01:11:08;3.72;;;3.42;;
12052;SDS011;6087;48.982;12.064;2022-08-20T01:13:38;3.53;;;3.22;;
12052;SDS011;6087;48.982;12.064;2022-08-20T01:16:11;4.70;;;3.72;;
12052;SDS011;6087;48.982;12.064;2022-08-20T01:18:43;4.07;;;3.30;;
12052;SDS011;6087;48.982;12.064;2022-08-20T01:21:12;3.50;;;3.20;;
12052;SDS011;6087;48.982;12.064;2022-08-20T01:23:41;3.92;;;3.40;;
12052;SDS011;6087;48.982;12.064;2022-08-20T01:26:16;3.80;;;3.50;;
12052;SDS011;6087;48.982;12.064;2022-08-20T01:28:45;4.40;;;4.00;;
12052;SDS011;6087;48.982;12.064;2022-08-20T01:31:18;4.63;;;3.75;;
12052;SDS011;6087;48.982;12.064;2022-08-20T01:33:47;3.33;;;3.13;;
12052;SDS011;6087;48.982;12.064;2022-08-20T01:36:15;3.70;;;3.35;;
12052;SDS011;6087;48.982;12.064;2022-08-20T01:38:45;4.22;;;3.53;;
12052;SDS011;6087;48.982;12.064;2022-08-20T01:41:17;3.85;;;3.35;;
12052;SDS011;6087;48.982;12.064;2022-08-20T01:43:51;4.82;;;3.70;;
12052;SDS011;6087;48.982;12.064;2022-08-20T01:46:21;4.28;;;3.53;;
12052;SDS011;6087;48.982;12.064;2022-08-20T01:48:50;3.97;;;3.47;;
12052;SDS011;6087;48.982;12.064;2022-08-20T01:51:21;7.07;;;3.88;;
12052;SDS011;6087;48.982;12.064;2022-08-20T01:53:52;3.67;;;3.35;;
12052;SDS011;6087;48.982;12.064;2022-08-20T01:56:24;3.80;;;3.50;;
12052;SDS011;6087;48.982;12.064;2022-08-20T01:58:54;3.65;;;3.17;;
12052;SDS011;6087;48.982;12.064;2022-08-20T02:01:23;3.35;;;3.05;;
12052;SDS011;6087;48.982;12.064;2022-08-20T02:03:52;5.65;;;3.78;;
12052;SDS011;6087;48.982;12.064;2022-08-20T02:06:21;3.53;;;3.22;;
12052;SDS011;6087;48.982;12.064;2022-08-20T02:08:50;5.03;;;3.70;;
12052;SDS011;6087;48.982;12.064;2022-08-20T02:11:19;3.90;;;3.15;;
12052;SDS011;6087;48.982;12.064;2022-08-20T02:13:48;3.60;;;3.30;;
12052;SDS011;6087;48.982;12.064;2022-08-20T02:16:17;3.80;;;3.45;;
12052;SDS011;6087;48.982;12.064;2022-08-20T02:18:46;3.60;;;3.30;;
12052;SDS011;6087;48.982;12.064;2022-08-20T02:21:15;4.88;;;3.95;;
12052;SDS011;6087;48.982;12.064;2022-08-20T02:23:42;3.75;;;3.28;;
12052;SDS011;6087;48.982;12.064;2022-08-20T02:26:09;5.05;;;3.30;;
12052;SDS011;6087;48.982;12.064;2022-08-20T02:28:36;4.00;;;3.60;;
12052;SDS011;6087;48.982;12.064;2022-08-20T02:31:04;3.60;;;3.30;;
12052;SDS011;6087;48.982;12.064;2022-08-20T02:33:33;3.53;;;3.22;;
12052;SDS011;6087;48.982;12.064;2022-08-20T02:36:01;6.78;;;3.63;;
12052;SDS011;6087;48.982;12.064;2022-08-20T02:41:50;3.47;;;3.17;;
12052;SDS011;6087;48.982;12.064;2022-08-20T02:44:17;4.43;;;4.07;;
12052;SDS011;6087;48.982;12.064;2022-08-20T02:46:46;3.83;;;3.45;;
12052;SDS011;6087;48.982;12.064;2022-08-20T02:49:14;4.22;;;3.92;;
12052;SDS011;6087;48.982;12.064;2022-08-20T02:51:41;3.78;;;3.47;;
12052;SDS011;6087;48.982;12.064;2022-08-20T02:54:08;3.95;;;3.65;;
12052;SDS011;6087;48.982;12.064;2022-08-20T02:56:34;3.97;;;3.55;;
12052;SDS011;6087;48.982;12.064;2022-08-20T02:59:01;3.97;;;3.67;;
12052;SDS011;6087;48.982;12.064;2022-08-20T03:01:28;3.90;;;3.60;;
12052;SDS011;6087;48.982;12.064;2022-08-20T03:03:57;4.03;;;3.72;;
12052;SDS011;6087;48.982;12.064;2022-08-20T03:06:24;4.05;;;3.75;;
12052;SDS011;6087;48.982;12.064;2022-08-20T03:08:52;3.90;;;3.53;;
12052;SDS011;6087;48.982;12.064;2022-08-20T03:11:19;4.78;;;4.15;;
12052;SDS011;6087;48.982;12.064;2022-08-20T03:13:46;4.35;;;4.03;;
12052;SDS011;6087;48.982;12.064;2022-08-20T03:16:13;4.55;;;3.53;;
12052;SDS011;6087;48.982;12.064;2022-08-20T03:18:41;4.32;;;3.92;;
12052;SDS011;6087;48.982;12.064;2022-08-20T03:21:11;3.90;;;3.60;;
12052;SDS011;6087;48.982;12.064;2022-08-20T03:23:39;4.60;;;4.10;;
12052;SDS011;6087;48.982;12.064;2022-08-20T03:26:07;4.53;;;4.22;;
12052;SDS011;6087;48.982;12.064;2022-08-20T03:28:36;5.10;;;4.18;;
12052;SDS011;6087;48.982;12.064;2022-08-20T03:31:04;5.68;;;4.55;;
12052;SDS011;6087;48.982;12.064;2022-08-20T03:33:32;4.40;;;4.00;;
12052;SDS011;6087;48.982;12.064;2022-08-20T03:35:59;4.60;;;4.20;;
12052;SDS011;6087;48.982;12.064;2022-08-20T03:38:27;7.40;;;4.78;;
12052;SDS011;6087;48.982;12.064;2022-08-20T03:40:54;5.40;;;4.57;;
12052;SDS011;6087;48.982;12.064;2022-08-20T03:43:21;5.15;;;4.70;;
12052;SDS011;6087;48.982;12.064;2022-08-20T03:45:49;5.30;;;4.90;;
12052;SDS011;6087;48.982;12.064;2022-08-20T03:48:17;5.13;;;4.57;;
12052;SDS011;6087;48.982;12.064;2022-08-20T03:50:45;7.07;;;4.93;;
12052;SDS011;6087;48.982;12.064;2022-08-20T03:53:14;5.13;;;4.65;;
12052;SDS011;6087;48.982;12.064;2022-08-20T03:55:43;5.07;;;4.57;;
12052;SDS011;6087;48.982;12.064;2022-08-20T03:58:11;5.10;;;4.70;;
12052;SDS011;6087;48.982;12.064;2022-08-20T04:00:40;5.45;;;4.97;;
12052;SDS011;6087;48.982;12.064;2022-08-20T04:03:08;5.22;;;4.72;;
12052;SDS011;6087;48.982;12.064;2022-08-20T04:05:37;5.53;;;4.85;;
12052;SDS011;6087;48.982;12.064;2022-08-20T04:08:06;5.60;;;5.10;;
12052;SDS011;6087;48.982;12.064;2022-08-20T04:10:35;5.20;;;4.70;;
12052;SDS011;6087;48.982;12.064;2022-08-20T04:13:04;5.75;;;5.13;;
12052;SDS011;6087;48.982;12.064;2022-08-20T04:15:32;4.82;;;4.43;;
12052;SDS011;6087;48.982;12.064;2022-08-20T04:18:00;5.32;;;4.50;;
12052;SDS011;6087;48.982;12.064;2022-08-20T04:20:32;5.35;;;4.85;;
12052;SDS011;6087;48.982;12.064;2022-08-20T04:23:00;6.72;;;5.47;;
12052;SDS011;6087;48.982;12.064;2022-08-20T04:25:28;6.82;;;5.30;;
12052;SDS011;6087;48.982;12.064;2022-08-20T04:27:56;6.25;;;5.70;;
12052;SDS011;6087;48.982;12.064;2022-08-20T04:30:25;5.10;;;4.70;;
12052;SDS011;6087;48.982;12.064;2022-08-20T04:32:52;7.10;;;5.18;;
12052;SDS011;6087;48.982;12.064;2022-08-20T04:35:20;6.28;;;4.88;;
12052;SDS011;6087;48.982;12.064;2022-08-20T04:37:55;6.15;;;4.70;;
12052;SDS011;6087;48.982;12.064;2022-08-20T04:40:23;7.35;;;5.32;;
12052;SDS011;6087;48.982;12.064;2022-08-20T04:43:08;6.85;;;6.25;;
12052;SDS011;6087;48.982;12.064;2022-08-20T04:45:37;5.88;;;5.28;;
12052;SDS011;6087;48.982;12.064;2022-08-20T04:48:04;6.30;;;5.00;;
12052;SDS011;6087;48.982;12.064;2022-08-20T04:50:32;6.57;;;5.35;;
12052;SDS011;6087;48.982;12.064;2022-08-20T04:53:01;5.97;;;5.47;;
12052;SDS011;6087;48.982;12.064;2022-08-20T04:55:29;5.45;;;4.95;;
12052;SDS011;6087;48.982;12.064;2022-08-20T04:58:01;7.13;;;5.18;;
12052;SDS011;6087;48.982;12.064;2022-08-20T05:00:29;6.22;;;5.50;;
12052;SDS011;6087;48.982;12.064;2022-08-20T05:02:58;5.78;;;5.28;;
12052;SDS011;6087;48.982;12.064;2022-08-20T05:05:25;5.65;;;5.15;;
12052;SDS011;6087;48.982;12.064;2022-08-20T05:07:53;5.72;;;5.22;;
12052;SDS011;6087;48.982;12.064;2022-08-20T05:10:20;5.55;;;5.05;;
12052;SDS011;6087;48.982;12.064;2022-08-20T05:12:47;5.85;;;5.25;;
12052;SDS011;6087;48.982;12.064;2022-08-20T05:15:15;5.85;;;5.25;;
12052;SDS011;6087;48.982;12.064;2022-08-20T05:17:42;5.65;;;4.95;;
12052;SDS011;6087;48.982;12.064;2022-08-20T05:20:12;7.38;;;5.80;;
12052;SDS011;6087;48.982;12.064;2022-08-20T05:22:41;8.98;;;5.82;;
12052;SDS011;6087;48.982;12.064;2022-08-20T05:25:09;5.57;;;5.07;;
12052;SDS011;6087;48.982;12.064;2022-08-20T05:27:36;5.78;;;5.28;;
12052;SDS011;6087;48.982;12.064;2022-08-20T05:30:05;8.07;;;5.85;;
12052;SDS011;6087;48.982;12.064;2022-08-20T05:32:33;8.38;;;5.45;;
12052;SDS011;6087;48.982;12.064;2022-08-20T05:35:01;6.25;;;5.65;;
12052;SDS011;6087;48.982;12.064;2022-08-20T05:37:30;5.57;;;5.13;;
12052;SDS011;6087;48.982;12.064;2022-08-20T05:39:57;6.43;;;5.80;;
12052;SDS011;6087;48.982;12.064;2022-08-20T05:42:23;7.85;;;5.63;;
12052;SDS011;6087;48.982;12.064;2022-08-20T05:44:53;6.72;;;5.53;;
12052;SDS011;6087;48.982;12.064;2022-08-20T05:47:19;6.63;;;6.03;;
12052;SDS011;6087;48.982;12.064;2022-08-20T05:49:52;7.50;;;6.05;;
12052;SDS011;6087;48.982;12.064;2022-08-20T05:52:19;6.70;;;5.97;;
12052;SDS011;6087;48.982;12.064;2022-08-20T05:54:47;6.55;;;5.82;;
12052;SDS011;6087;48.982;12.064;2022-08-20T05:57:15;5.47;;;4.97;;
12052;SDS011;6087;48.982;12.064;2022-08-20T05:59:44;6.53;;;5.93;;
12052;SDS011;6087;48.982;12.064;2022-08-20T06:02:11;7.43;;;6.63;;
12052;SDS011;6087;48.982;12.064;2022-08-20T06:04:51;7.78;;;6.75;;
12052;SDS011;6087;48.982;12.064;2022-08-20T06:07:18;6.90;;;6.07;;
12052;SDS011;6087;48.982;12.064;2022-08-20T06:09:47;8.10;;;7.10;;
12052;SDS011;6087;48.982;12.064;2022-08-20T06:12:14;8.00;;;7.20;;
12052;SDS011;6087;48.982;12.064;2022-08-20T06:14:42;7.97;;;6.47;;
12052;SDS011;6087;48.982;12.064;2022-08-20T06:17:11;7.07;;;6.47;;
12052;SDS011;6087;48.982;12.064;2022-08-20T06:19:40;9.05;;;6.60;;
12052;SDS011;6087;48.982;12.064;2022-08-20T06:22:08;7.60;;;6.88;;
12052;SDS011;6087;48.982;12.064;2022-08-20T06:24:35;7.35;;;6.30;;
12052;SDS011;6087;48.982;12.064;2022-08-20T06:27:04;7.72;;;6.90;;
12052;SDS011;6087;48.982;12.064;2022-08-20T06:29:31;7.43;;;6.72;;
12052;SDS011;6087;48.982;12.064;2022-08-20T06:31:58;7.75;;;6.88;;
12052;SDS011;6087;48.982;12.064;2022-08-20T06:34:26;7.57;;;6.88;;
12052;SDS011;6087;48.982;12.064;2022-08-20T06:36:52;7.90;;;7.10;;
12052;SDS011;6087;48.982;12.064;2022-08-20T06:39:20;7.32;;;6.30;;
12052;SDS011;6087;48.982;12.064;2022-08-20T06:41:47;8.90;;;7.20;;
12052;SDS011;6087;48.982;12.064;2022-08-20T06:44:16;10.05;;;7.30;;
12052;SDS011;6087;48.982;12.064;2022-08-20T06:46:44;8.18;;;7.38;;
12052;SDS011;6087;48.982;12.064;2022-08-20T06:49:11;8.00;;;7.20;;
12052;SDS011;6087;48.982;12.064;2022-08-20T06:51:38;7.47;;;6.75;;
12052;SDS011;6087;48.982;12.064;2022-08-20T06:54:05;8.15;;;7.35;;
12052;SDS011;6087;48.982;12.064;2022-08-20T06:56:32;7.50;;;6.75;;
12052;SDS011;6087;48.982;12.064;2022-08-20T06:58:59;7.30;;;6.60;;
12052;SDS011;6087;48.982;12.064;2022-08-20T07:01:27;8.13;;;7.32;;
12052;SDS011;6087;48.982;12.064;2022-08-20T07:03:54;7.88;;;6.80;;
12052;SDS011;6087;48.982;12.064;2022-08-20T07:06:24;7.43;;;6.65;;
12052;SDS011;6087;48.982;12.064;2022-08-20T07:08:51;7.85;;;7.03;;
12052;SDS011;6087;48.982;12.064;2022-08-20T07:11:18;7.82;;;7.13;;
12052;SDS011;6087;48.982;12.064;2022-08-20T07:13:45;7.95;;;7.15;;
12052;SDS011;6087;48.982;12.064;2022-08-20T07:16:13;8.57;;;7.53;;
12052;SDS011;6087;48.982;12.064;2022-08-20T07:18:41;8.15;;;7.35;;
12052;SDS011;6087;48.982;12.064;2022-08-20T07:21:08;9.10;;;8.20;;
12052;SDS011;6087;48.982;12.064;2022-08-20T07:23:36;8.98;;;7.78;;
12052;SDS011;6087;48.982;12.064;2022-08-20T07:26:03;8.73;;;7.78;;
12052;SDS011;6087;48.982;12.064;2022-08-20T07:28:32;9.48;;;8.57;;
12052;SDS011;6087;48.982;12.064;2022-08-20T07:30:59;9.20;;;8.20;;
12052;SDS011;6087;48.982;12.064;2022-08-20T07:33:44;9.10;;;8.20;;
12052;SDS011;6087;48.982;12.064;2022-08-20T07:36:11;10.40;;;8.50;;
12052;SDS011;6087;48.982;12.064;2022-08-20T07:38:38;9.23;;;8.32;;
12052;SDS011;6087;48.982;12.064;2022-08-20T07:41:08;8.93;;;8.00;;
12052;SDS011;6087;48.982;12.064;2022-08-20T07:43:37;9.93;;;8.75;;
12052;SDS011;6087;48.982;12.064;2022-08-20T07:46:04;10.20;;;8.75;;
12052;SDS011;6087;48.982;12.064;2022-08-20T07:48:33;10.10;;;9.10;;
12052;SDS011;6087;48.982;12.064;2022-08-20T07:51:03;10.40;;;9.35;;
12052;SDS011;6087;48.982;12.064;2022-08-20T07:53:31;11.43;;;10.32;;
12052;SDS011;6087;48.982;12.064;2022-08-20T07:55:59;9.80;;;8.85;;
12052;SDS011;6087;48.982;12.064;2022-08-20T07:58:26;11.48;;;10.13;;
12052;SDS011;6087;48.982;12.064;2022-08-20T08:00:54;11.07;;;9.98;;
12052;SDS011;6087;48.982;12.064;2022-08-20T08:03:21;14.40;;;10.85;;
12052;SDS011;6087;48.982;12.064;2022-08-20T08:05:48;11.65;;;10.45;;
12052;SDS011;6087;48.982;12.064;2022-08-20T08:08:17;14.05;;;11.63;;
12052;SDS011;6087;48.982;12.064;2022-08-20T08:10:48;13.85;;;10.88;;
12052;SDS011;6087;48.982;12.064;2022-08-20T08:13:19;13.48;;;11.30;;
12052;SDS011;6087;48.982;12.064;2022-08-20T08:15:50;11.38;;;10.23;;
12052;SDS011;6087;48.982;12.064;2022-08-20T08:18:23;11.32;;;10.25;;
12052;SDS011;6087;48.982;12.064;2022-08-20T08:20:52;11.88;;;10.68;;
12052;SDS011;6087;48.982;12.064;2022-08-20T08:23:22;11.63;;;10.52;;
12052;SDS011;6087;48.982;12.064;2022-08-20T08:25:49;11.82;;;10.63;;
12052;SDS011;6087;48.982;12.064;2022-08-20T08:28:16;13.60;;;12.05;;
12052;SDS011;6087;48.982;12.064;2022-08-20T08:30:44;14.20;;;12.80;;
12052;SDS011;6087;48.982;12.064;2022-08-20T08:33:16;15.80;;;14.10;;
12052;SDS011;6087;48.982;12.064;2022-08-20T08:35:55;15.18;;;13.15;;
12052;SDS011;6087;48.982;12.064;2022-08-20T08:38:24;15.35;;;13.82;;
12052;SDS011;6087;48.982;12.064;2022-08-20T08:40:53;16.75;;;14.95;;
12052;SDS011;6087;48.982;12.064;2022-08-20T08:43:23;15.68;;;14.18;;
12052;SDS011;6087;48.982;12.064;2022-08-20T08:45:53;16.08;;;14.45;;
12052;SDS011;6087;48.982;12.064;2022-08-20T08:48:25;17.60;;;15.70;;
12052;SDS011;6087;48.982;12.064;2022-08-20T08:50:57;17.95;;;16.13;;
12052;SDS011;6087;48.982;12.064;2022-08-20T08:53:29;16.75;;;15.05;;
12052;SDS011;6087;48.982;12.064;2022-08-20T08:55:59;16.30;;;14.73;;
12052;SDS011;6087;48.982;12.064;2022-08-20T08:58:27;22.15;;;17.17;;
12052;SDS011;6087;48.982;12.064;2022-08-20T09:00:54;16.85;;;15.10;;
12052;SDS011;6087;48.982;12.064;2022-08-20T09:03:22;20.45;;;17.67;;
12052;SDS011;6087;48.982;12.064;2022-08-20T09:05:52;18.35;;;16.65;;
12052;SDS011;6087;48.982;12.064;2022-08-20T09:08:22;18.45;;;16.55;;
12052;SDS011;6087;48.982;12.064;2022-08-20T09:10:53;18.98;;;16.98;;
12052;SDS011;6087;48.982;12.064;2022-08-20T09:13:20;17.02;;;15.32;;
12052;SDS011;6087;48.982;12.064;2022-08-20T09:15:47;17.25;;;15.45;;
12052;SDS011;6087;48.982;12.064;2022-08-20T09:18:14;17.65;;;15.85;;
12052;SDS011;6087;48.982;12.064;2022-08-20T09:20:41;17.30;;;15.57;;
12052;SDS011;6087;48.982;12.064;2022-08-20T09:23:08;17.00;;;15.35;;
12052;SDS011;6087;48.982;12.064;2022-08-20T09:25:35;18.10;;;16.10;;
12052;SDS011;6087;48.982;12.064;2022-08-20T09:28:03;17.40;;;15.40;;
12052;SDS011;6087;48.982;12.064;2022-08-20T09:30:30;18.17;;;16.35;;
12052;SDS011;6087;48.982;12.064;2022-08-20T09:32:57;17.80;;;16.10;;
12052;SDS011;6087;48.982;12.064;2022-08-20T09:35:24;18.00;;;16.20;;
12052;SDS011;6087;48.982;12.064;2022-08-20T09:37:51;18.98;;;16.95;;
12052;SDS011;6087;48.982;12.064;2022-08-20T09:40:19;16.77;;;14.85;;
12052;SDS011;6087;48.982;12.064;2022-08-20T09:42:47;19.45;;;16.13;;
12052;SDS011;6087;48.982;12.064;2022-08-20T09:45:15;19.05;;;17.15;;
12052;SDS011;6087;48.982;12.064;2022-08-20T09:47:43;18.60;;;16.75;;
12052;SDS011;6087;48.982;12.064;2022-08-20T09:50:10;17.95;;;16.13;;
12052;SDS011;6087;48.982;12.064;2022-08-20T09:52:38;18.00;;;16.10;;
12052;SDS011;6087;48.982;12.064;2022-08-20T09:55:14;19.42;;;17.33;;
12052;SDS011;6087;48.982;12.064;2022-08-20T09:57:45;19.23;;;17.10;;
12052;SDS011;6087;48.982;12.064;2022-08-20T10:00:13;18.15;;;16.17;;
12052;SDS011;6087;48.982;12.064;2022-08-20T10:02:42;19.10;;;17.02;;
12052;SDS011;6087;48.982;12.064;2022-08-20T10:05:09;19.40;;;17.30;;
12052;SDS011;6087;48.982;12.064;2022-08-20T10:07:37;19.42;;;16.80;;
12052;SDS011;6087;48.982;12.064;2022-08-20T10:10:05;17.98;;;16.08;;
12052;SDS011;6087;48.982;12.064;2022-08-20T10:12:34;20.60;;;16.90;;
12052;SDS011;6087;48.982;12.064;2022-08-20T10:15:01;21.95;;;18.77;;
12052;SDS011;6087;48.982;12.064;2022-08-20T10:17:28;19.52;;;17.42;;
12052;SDS011;6087;48.982;12.064;2022-08-20T10:19:57;20.25;;;18.10;;
12052;SDS011;6087;48.982;12.064;2022-08-20T10:22:24;19.02;;;17.13;;
12052;SDS011;6087;48.982;12.064;2022-08-20T10:24:51;21.98;;;18.95;;
12052;SDS011;6087;48.982;12.064;2022-08-20T10:27:18;18.92;;;17.00;;
12052;SDS011;6087;48.982;12.064;2022-08-20T10:29:45;18.50;;;16.52;;
12052;SDS011;6087;48.982;12.064;2022-08-20T10:32:12;19.55;;;17.60;;
12052;SDS011;6087;48.982;12.064;2022-08-20T10:34:42;22.60;;;19.27;;
12052;SDS011;6087;48.982;12.064;2022-08-20T10:37:14;20.08;;;18.05;;
12052;SDS011;6087;48.982;12.064;2022-08-20T10:39:42;20.98;;;18.70;;
12052;SDS011;6087;48.982;12.064;2022-08-20T10:42:09;19.13;;;17.23;;
12052;SDS011;6087;48.982;12.064;2022-08-20T10:44:36;19.75;;;17.67;;
12052;SDS011;6087;48.982;12.064;2022-08-20T10:47:16;20.30;;;18.23;;
12052;SDS011;6087;48.982;12.064;2022-08-20T10:49:46;19.35;;;17.35;;
12052;SDS011;6087;48.982;12.064;2022-08-20T10:52:15;20.35;;;18.33;;
12052;SDS011;6087;48.982;12.064;2022-08-20T10:54:41;19.27;;;17.33;;
12052;SDS011;6087;48.982;12.064;2022-08-20T10:57:11;20.25;;;18.15;;
12052;SDS011;6087;48.982;12.064;2022-08-20T10:59:40;19.80;;;17.67;;
12052;SDS011;6087;48.982;12.064;2022-08-20T11:02:08;20.25;;;18.08;;
12052;SDS011;6087;48.982;12.064;2022-08-20T11:04:36;20.38;;;18.30;;
12052;SDS011;6087;48.982;12.064;2022-08-20T11:07:11;17.77;;;15.98;;
12052;SDS011;6087;48.982;12.064;2022-08-20T11:09:41;17.70;;;15.85;;
12052;SDS011;6087;48.982;12.064;2022-08-20T11:12:09;18.52;;;16.73;;
12052;SDS011;6087;48.982;12.064;2022-08-20T11:14:36;20.58;;;17.52;;
12052;SDS011;6087;48.982;12.064;2022-08-20T11:17:03;18.88;;;17.08;;
12052;SDS011;6087;48.982;12.064;2022-08-20T11:19:30;21.13;;;18.30;;
12052;SDS011;6087;48.982;12.064;2022-08-20T11:21:57;20.45;;;18.35;;
12052;SDS011;6087;48.982;12.064;2022-08-20T11:24:24;20.08;;;17.83;;
12052;SDS011;6087;48.982;12.064;2022-08-20T11:26:52;19.00;;;17.10;;
12052;SDS011;6087;48.982;12.064;2022-08-20T11:29:20;19.58;;;17.55;;
12052;SDS011;6087;48.982;12.064;2022-08-20T11:31:48;18.92;;;16.95;;
12052;SDS011;6087;48.982;12.064;2022-08-20T11:34:15;20.15;;;17.73;;
12052;SDS011;6087;48.982;12.064;2022-08-20T11:36:43;19.05;;;17.08;;
12052;SDS011;6087;48.982;12.064;2022-08-20T11:39:10;17.85;;;16.20;;
12052;SDS011;6087;48.982;12.064;2022-08-20T11:41:37;17.35;;;15.70;;
12052;SDS011;6087;48.982;12.064;2022-08-20T11:44:06;19.65;;;17.65;;
12052;SDS011;6087;48.982;12.064;2022-08-20T11:46:32;18.90;;;17.10;;
12052;SDS011;6087;48.982;12.064;2022-08-20T11:48:59;18.35;;;16.35;;
12052;SDS011;6087;48.982;12.064;2022-08-20T11:51:26;19.92;;;17.83;;
12052;SDS011;6087;48.982;12.064;2022-08-20T11:53:53;18.75;;;16.75;;
12052;SDS011;6087;48.982;12.064;2022-08-20T11:56:20;19.38;;;17.38;;
12052;SDS011;6087;48.982;12.064;2022-08-20T11:58:47;20.40;;;18.08;;
12052;SDS011;6087;48.982;12.064;2022-08-20T12:01:16;19.08;;;17.05;;
12052;SDS011;6087;48.982;12.064;2022-08-20T12:03:43;20.67;;;18.13;;
12052;SDS011;6087;48.982;12.064;2022-08-20T12:06:10;19.27;;;17.38;;
12052;SDS011;6087;48.982;12.064;2022-08-20T12:08:36;20.38;;;17.67;;
12052;SDS011;6087;48.982;12.064;2022-08-20T12:11:03;19.55;;;17.42;;
12052;SDS011;6087;48.982;12.064;2022-08-20T12:13:32;18.83;;;16.88;;
12052;SDS011;6087;48.982;12.064;2022-08-20T12:16:01;20.15;;;18.05;;
12052;SDS011;6087;48.982;12.064;2022-08-20T12:18:31;18.67;;;15.98;;
12052;SDS011;6087;48.982;12.064;2022-08-20T12:20:58;19.58;;;17.58;;
12052;SDS011;6087;48.982;12.064;2022-08-20T12:23:25;19.17;;;17.15;;
12052;SDS011;6087;48.982;12.064;2022-08-20T12:25:52;19.27;;;17.23;;
12052;SDS011;6087;48.982;12.064;2022-08-20T12:28:19;19.80;;;17.73;;
12052;SDS011;6087;48.982;12.064;2022-08-20T12:30:46;18.60;;;16.73;;
12052;SDS011;6087;48.982;12.064;2022-08-20T12:33:12;20.27;;;18.27;;
12052;SDS011;6087;48.982;12.064;2022-08-20T12:35:41;19.63;;;17.63;;
12052;SDS011;6087;48.982;12.064;2022-08-20T12:38:08;20.00;;;17.98;;
12052;SDS011;6087;48.982;12.064;2022-08-20T12:40:34;19.65;;;17.73;;
12052;SDS011;6087;48.982;12.064;2022-08-20T12:43:02;20.35;;;18.42;;
12052;SDS011;6087;48.982;12.064;2022-08-20T12:45:29;20.88;;;18.77;;
12052;SDS011;6087;48.982;12.064;2022-08-20T12:48:01;20.02;;;17.92;;
12052;SDS011;6087;48.982;12.064;2022-08-20T12:50:29;20.75;;;18.65;;
12052;SDS011;6087;48.982;12.064;2022-08-20T12:52:58;21.13;;;18.98;;
12052;SDS011;6087;48.982;12.064;2022-08-20T12:55:26;21.42;;;19.15;;
12052;SDS011;6087;48.982;12.064;2022-08-20T12:57:56;22.38;;;19.98;;
12052;SDS011;6087;48.982;12.064;2022-08-20T13:00:26;20.80;;;18.60;;
12052;SDS011;6087;48.982;12.064;2022-08-20T13:02:55;22.52;;;20.35;;
12052;SDS011;6087;48.982;12.064;2022-08-20T13:05:23;22.23;;;19.88;;
12052;SDS011;6087;48.982;12.064;2022-08-20T13:07:51;21.13;;;19.05;;
12052;SDS011;6087;48.982;12.064;2022-08-20T13:10:21;24.10;;;20.38;;
12052;SDS011;6087;48.982;12.064;2022-08-20T13:12:50;21.52;;;19.23;;
12052;SDS011;6087;48.982;12.064;2022-08-20T13:15:17;22.70;;;20.48;;
12052;SDS011;6087;48.982;12.064;2022-08-20T13:17:49;22.40;;;20.05;;
12052;SDS011;6087;48.982;12.064;2022-08-20T13:20:16;21.48;;;19.27;;
12052;SDS011;6087;48.982;12.064;2022-08-20T13:22:43;22.00;;;19.77;;
12052;SDS011;6087;48.982;12.064;2022-08-20T13:25:11;21.75;;;19.77;;
12052;SDS011;6087;48.982;12.064;2022-08-20T13:27:40;20.90;;;18.85;;
12052;SDS011;6087;48.982;12.064;2022-08-20T13:30:09;22.33;;;19.23;;
12052;SDS011;6087;48.982;12.064;2022-08-20T13:32:39;21.40;;;19.25;;
12052;SDS011;6087;48.982;12.064;2022-08-20T13:35:06;21.10;;;18.83;;
12052;SDS011;6087;48.982;12.064;2022-08-20T13:37:35;21.23;;;19.05;;
12052;SDS011;6087;48.982;12.064;2022-08-20T13:40:03;20.88;;;18.83;;
12052;SDS011;6087;48.982;12.064;2022-08-20T13:42:32;20.17;;;18.15;;
12052;SDS011;6087;48.982;12.064;2022-08-20T13:45:00;19.90;;;17.95;;
12052;SDS011;6087;48.982;12.064;2022-08-20T13:47:28;19.75;;;17.60;;
12052;SDS011;6087;48.982;12.064;2022-08-20T13:49:57;19.83;;;17.85;;
12052;SDS011;6087;48.982;12.064;2022-08-20T13:52:25;19.90;;;16.75;;
12052;SDS011;6087;48.982;12.064;2022-08-20T13:54:52;20.85;;;18.70;;
12052;SDS011;6087;48.982;12.064;2022-08-20T13:57:20;18.70;;;16.90;;
12052;SDS011;6087;48.982;12.064;2022-08-20T13:59:49;18.10;;;16.35;;
12052;SDS011;6087;48.982;12.064;2022-08-20T14:02:20;19.45;;;17.48;;
12052;SDS011;6087;48.982;12.064;2022-08-20T14:04:47;20.75;;;18.63;;
12052;SDS011;6087;48.982;12.064;2022-08-20T14:07:15;20.33;;;17.92;;
12052;SDS011;6087;48.982;12.064;2022-08-20T14:09:44;19.92;;;17.83;;
12052;SDS011;6087;48.982;12.064;2022-08-20T14:12:13;19.90;;;17.77;;
12052;SDS011;6087;48.982;12.064;2022-08-20T14:14:41;20.88;;;18.85;;
12052;SDS011;6087;48.982;12.064;2022-08-20T14:17:13;22.48;;;20.15;;
12052;SDS011;6087;48.982;12.064;2022-08-20T14:19:42;20.67;;;18.17;;
12052;SDS011;6087;48.982;12.064;2022-08-20T14:22:09;20.50;;;18.40;;
12052;SDS011;6087;48.982;12.064;2022-08-20T14:24:36;19.92;;;17.83;;
12052;SDS011;6087;48.982;12.064;2022-08-20T14:27:03;21.00;;;18.90;;
12052;SDS011;6087;48.982;12.064;2022-08-20T14:29:30;20.23;;;18.15;;
12052;SDS011;6087;48.982;12.064;2022-08-20T14:31:58;22.05;;;19.77;;
12052;SDS011;6087;48.982;12.064;2022-08-20T14:34:25;20.85;;;18.65;;
12052;SDS011;6087;48.982;12.064;2022-08-20T14:36:53;21.42;;;19.20;;
12052;SDS011;6087;48.982;12.064;2022-08-20T14:39:21;20.38;;;18.27;;
12052;SDS011;6087;48.982;12.064;2022-08-20T14:41:48;21.05;;;18.48;;
12052;SDS011;6087;48.982;12.064;2022-08-20T14:44:15;20.63;;;18.58;;
12052;SDS011;6087;48.982;12.064;2022-08-20T14:46:42;23.98;;;19.92;;